createdAt,value
2018-01-08T00:04:10.212Z,102860.12
2018-01-08T00:06:37.630Z,102856.13
2018-01-08T00:09:05.060Z,102854.46
2018-01-08T00:11:32.507Z,102852.85
2018-01-08T00:13:59.939Z,102862.16
2018-01-08T00:16:27.347Z,102866.23
2018-01-08T00:18:54.783Z,102854.18
2018-01-08T00:21:22.224Z,102860.43
2018-01-08T00:23:49.644Z,102862.88
2018-01-08T00:26:17.084Z,102862.88
2018-01-08T00:28:44.507Z,102863.35
2018-01-08T00:31:11.955Z,102857.16
2018-01-08T00:33:39.424Z,102858.82
2018-01-08T00:36:06.900Z,102858.97
2018-01-08T00:38:34.329Z,102859.02
2018-01-08T00:41:01.772Z,102866.94
2018-01-08T00:43:29.196Z,102858.20
2018-01-08T00:45:56.612Z,102863.66
2018-01-08T00:48:24.058Z,102859.80
2018-01-08T00:50:51.499Z,102856.01
2018-01-08T00:53:18.944Z,102860.30
2018-01-08T00:55:46.364Z,102857.64
2018-01-08T00:58:13.825Z,102860.16
2018-01-08T01:00:41.252Z,102854.05
2018-01-08T01:03:08.687Z,102860.59
2018-01-08T01:05:36.170Z,102853.77
2018-01-08T01:08:03.610Z,102854.57
2018-01-08T01:10:31.071Z,102856.94
2018-01-08T01:12:58.490Z,102850.72
2018-01-08T01:15:25.931Z,102851.97
2018-01-08T01:17:53.368Z,102847.44
2018-01-08T01:20:20.831Z,102847.89
2018-01-08T01:22:48.263Z,102846.66
2018-01-08T01:25:15.706Z,102849.94
2018-01-08T01:27:43.151Z,102853.16
2018-01-08T01:30:10.592Z,102852.02
2018-01-08T01:32:38.053Z,102846.87
2018-01-08T01:35:05.473Z,102853.80
2018-01-08T01:37:32.905Z,102848.20
2018-01-08T01:40:00.579Z,102849.37
2018-01-08T01:42:28.011Z,102840.63
2018-01-08T01:44:55.449Z,102842.95
2018-01-08T01:47:22.888Z,102839.44
2018-01-08T01:49:50.332Z,102834.33
2018-01-08T01:52:17.764Z,102840.77
2018-01-08T01:54:45.208Z,102845.03
2018-01-08T01:57:12.624Z,102838.81
2018-01-08T01:59:40.043Z,102848.80
2018-01-08T02:02:07.492Z,102847.97
2018-01-08T02:04:34.902Z,102844.55
2018-01-08T02:07:02.341Z,102840.28
2018-01-08T02:09:29.795Z,102844.32
2018-01-08T02:11:57.219Z,102838.19
2018-01-08T02:14:24.652Z,102845.64
2018-01-08T02:16:52.110Z,102844.45
2018-01-08T02:19:19.544Z,102834.95
2018-01-08T02:21:46.967Z,102840.31
2018-01-08T02:26:48.248Z,102827.33
2018-01-08T02:29:15.719Z,102826.34
2018-01-08T02:31:43.141Z,102823.28
2018-01-08T02:34:10.563Z,102833.20
2018-01-08T02:36:38.013Z,102835.01
2018-01-08T02:39:05.425Z,102829.41
2018-01-08T02:41:32.895Z,102833.89
2018-01-08T02:44:00.317Z,102828.93
2018-01-08T02:46:27.736Z,102827.88
2018-01-08T02:48:55.180Z,102828.15
2018-01-08T02:51:22.645Z,102831.05
2018-01-08T02:53:50.086Z,102832.22
2018-01-08T02:56:17.512Z,102834.87
2018-01-08T02:58:44.969Z,102830.86
2018-01-08T03:01:12.388Z,102825.44
2018-01-08T03:03:39.807Z,102831.71
2018-01-08T03:06:07.284Z,102829.61
2018-01-08T03:08:34.699Z,102827.50
2018-01-08T03:11:02.176Z,102834.64
2018-01-08T03:13:29.651Z,102834.43
2018-01-08T03:15:57.210Z,102828.89
2018-01-08T03:18:24.645Z,102827.64
2018-01-08T03:20:52.078Z,102830.41
2018-01-08T03:23:19.527Z,102831.87
2018-01-08T03:25:47.043Z,102832.72
2018-01-08T03:28:14.473Z,102832.85
2018-01-08T03:30:41.916Z,102838.22
2018-01-08T03:33:09.409Z,102841.91
2018-01-08T03:35:36.835Z,102842.81
2018-01-08T03:38:04.425Z,102834.08
2018-01-08T03:40:31.884Z,102834.08
2018-01-08T03:42:59.304Z,102837.16
2018-01-08T03:45:26.744Z,102847.86
2018-01-08T03:47:54.161Z,102839.92
2018-01-08T03:50:21.580Z,102839.20
2018-01-08T03:52:49.024Z,102835.49
2018-01-08T03:55:17.275Z,102845.41
2018-01-08T03:57:44.691Z,102843.34
2018-01-08T04:00:12.129Z,102846.21
2018-01-08T04:02:39.587Z,102846.64
2018-01-08T04:05:07.004Z,102843.56
2018-01-08T04:07:34.427Z,102843.42
2018-01-08T04:10:01.868Z,102836.02
2018-01-08T04:12:29.296Z,102837.05
2018-01-08T04:14:56.780Z,102837.32
2018-01-08T04:17:24.230Z,102835.55
2018-01-08T04:19:51.700Z,102838.60
2018-01-08T04:22:19.119Z,102847.70
2018-01-08T04:24:46.551Z,102847.64
2018-01-08T04:27:14.075Z,102842.12
2018-01-08T04:29:41.520Z,102853.03
2018-01-08T04:32:08.928Z,102858.48
2018-01-08T04:34:36.355Z,102858.02
2018-01-08T04:37:03.783Z,102862.31
2018-01-08T04:39:31.199Z,102869.80
2018-01-08T04:41:58.599Z,102864.06
2018-01-08T04:44:26.045Z,102868.47
2018-01-08T04:46:53.492Z,102868.17
2018-01-08T04:49:20.924Z,102873.92
2018-01-08T04:51:48.369Z,102870.96
2018-01-08T04:54:15.823Z,102874.94
2018-01-08T04:56:43.234Z,102880.75
2018-01-08T04:59:10.707Z,102886.03
2018-01-08T05:01:38.150Z,102887.78
2018-01-08T05:04:05.643Z,102890.33
2018-01-08T05:06:33.112Z,102891.63
2018-01-08T05:09:00.547Z,102888.69
2018-01-08T05:11:27.971Z,102895.73
2018-01-08T05:13:55.420Z,102893.59
2018-01-08T05:16:22.843Z,102891.28
2018-01-08T05:18:50.287Z,102893.64
2018-01-08T05:21:17.719Z,102894.23
2018-01-08T05:23:45.153Z,102892.48
2018-01-08T05:26:12.576Z,102895.55
2018-01-08T05:28:40.049Z,102897.80
2018-01-08T05:31:07.481Z,102897.86
2018-01-08T05:33:34.893Z,102899.61
2018-01-08T05:36:02.338Z,102901.41
2018-01-08T05:38:29.750Z,102899.80
2018-01-08T05:40:57.174Z,102897.98
2018-01-08T05:43:24.634Z,102899.38
2018-01-08T05:45:52.075Z,102899.70
2018-01-08T05:48:19.487Z,102905.01
2018-01-08T05:50:46.929Z,102903.07
2018-01-08T05:53:14.350Z,102902.35
2018-01-08T05:55:41.808Z,102899.27
2018-01-08T05:58:09.232Z,102902.03
2018-01-08T06:00:36.650Z,102903.62
2018-01-08T06:03:04.606Z,102904.30
2018-01-08T06:05:32.030Z,102906.55
2018-01-08T06:07:59.504Z,102905.17
2018-01-08T06:10:26.938Z,102904.72
2018-01-08T06:12:54.351Z,102905.47
2018-01-08T06:15:21.815Z,102912.95
2018-01-08T06:17:49.239Z,102920.36
2018-01-08T06:20:16.664Z,102922.39
2018-01-08T06:22:44.106Z,102919.48
2018-01-08T06:25:11.544Z,102918.91
2018-01-08T06:27:38.963Z,102912.83
2018-01-08T06:30:06.420Z,102918.37
2018-01-08T06:32:33.856Z,102915.41
2018-01-08T06:35:01.279Z,102909.80
2018-01-08T06:37:28.707Z,102913.36
2018-01-08T06:39:56.140Z,102916.62
2018-01-08T06:42:23.578Z,102918.68
2018-01-08T06:44:51.051Z,102908.75
2018-01-08T06:47:18.462Z,102921.75
2018-01-08T06:49:45.878Z,102922.13
2018-01-08T06:52:13.319Z,102922.66
2018-01-08T06:54:40.787Z,102923.98
2018-01-08T06:57:08.217Z,102935.20
2018-01-08T06:59:35.658Z,102937.80
2018-01-08T07:02:03.133Z,102932.13
2018-01-08T07:04:30.544Z,102940.00
2018-01-08T07:06:58.155Z,102941.23
2018-01-08T07:09:25.594Z,102934.83
2018-01-08T07:11:53.080Z,102924.77
2018-01-08T07:14:20.506Z,102925.49
2018-01-08T07:16:47.939Z,102924.42
2018-01-08T07:19:15.376Z,102920.00
2018-01-08T07:21:42.831Z,102930.74
2018-01-08T07:24:10.283Z,102915.19
2018-01-08T07:26:37.857Z,102920.25
2018-01-08T07:29:05.280Z,102922.66
2018-01-08T07:31:32.719Z,102926.41
2018-01-08T07:34:00.205Z,102922.00
2018-01-08T07:36:27.723Z,102923.73
2018-01-08T07:38:55.153Z,102922.30
2018-01-08T07:41:22.753Z,102934.16
2018-01-08T07:43:50.206Z,102935.53
2018-01-08T07:46:17.610Z,102936.16
2018-01-08T07:48:45.068Z,102938.57
2018-01-08T07:51:12.487Z,102946.03
2018-01-08T07:53:39.989Z,102946.57
2018-01-08T07:56:07.532Z,102947.47
2018-01-08T07:58:34.966Z,102948.73
2018-01-08T08:01:02.406Z,102946.76
2018-01-08T08:03:29.864Z,102957.77
2018-01-08T08:05:57.337Z,102947.61
2018-01-08T08:08:24.764Z,102952.48
2018-01-08T08:10:52.249Z,102952.60
2018-01-08T08:13:19.697Z,102945.84
2018-01-08T08:15:47.116Z,102948.92
2018-01-08T08:18:14.573Z,102949.66
2018-01-08T08:20:42.000Z,102945.86
2018-01-08T08:23:09.451Z,102952.06
2018-01-08T08:25:36.892Z,102943.25
2018-01-08T08:28:04.317Z,102939.02
2018-01-08T08:30:31.759Z,102936.17
2018-01-08T08:32:59.172Z,102931.78
2018-01-08T08:35:26.626Z,102931.71
2018-01-08T08:37:54.059Z,102933.50
2018-01-08T08:40:21.471Z,102939.45
2018-01-08T08:42:48.943Z,102938.25
2018-01-08T08:45:16.446Z,102946.80
2018-01-08T08:47:43.881Z,102943.95
2018-01-08T08:50:11.351Z,102941.20
2018-01-08T08:52:38.779Z,102943.95
2018-01-08T08:55:06.206Z,102943.16
2018-01-08T08:57:33.651Z,102940.75
2018-01-08T09:00:01.196Z,102939.50
2018-01-08T09:02:28.620Z,102930.63
2018-01-08T09:04:56.099Z,102930.67
2018-01-08T09:07:23.568Z,102930.95
2018-01-08T09:09:51.022Z,102938.59
2018-01-08T09:12:18.553Z,102941.03
2018-01-08T09:14:46.034Z,102949.98
2018-01-08T09:17:13.454Z,102936.86
2018-01-08T09:19:40.908Z,102948.98
2018-01-08T09:22:08.324Z,102946.95
2018-01-08T09:24:35.738Z,102943.55
2018-01-08T09:27:03.177Z,102941.45
2018-01-08T09:29:30.611Z,102949.38
2018-01-08T09:31:58.047Z,102946.95
2018-01-08T09:34:25.465Z,102944.95
2018-01-08T09:36:52.915Z,102944.94
2018-01-08T09:39:20.336Z,102941.24
2018-01-08T09:41:47.846Z,102937.23
2018-01-08T09:44:15.292Z,102934.00
2018-01-08T09:46:42.727Z,102928.37
2018-01-08T09:49:10.163Z,102927.72
2018-01-08T09:51:37.580Z,102931.58
2018-01-08T09:54:05.024Z,102926.48
2018-01-08T09:56:32.444Z,102918.73
2018-01-08T09:58:59.864Z,102924.59
2018-01-08T10:01:27.318Z,102925.28
2018-01-08T10:04:06.695Z,102926.91
2018-01-08T10:06:45.987Z,102922.79
2018-01-08T10:09:25.273Z,102919.49
2018-01-08T10:12:04.558Z,102917.46
2018-01-08T10:14:43.795Z,102923.88
2018-01-08T10:17:23.211Z,102923.53
2018-01-08T10:19:59.123Z,102912.34
2018-01-08T10:22:26.571Z,102911.67
2018-01-08T10:24:54.028Z,102910.45
2018-01-08T10:27:21.436Z,102902.92
2018-01-08T10:29:48.892Z,102904.00
2018-01-08T10:32:16.329Z,102898.44
2018-01-08T10:34:43.896Z,102896.98
2018-01-08T10:37:11.353Z,102899.87
2018-01-08T10:39:38.759Z,102894.66
2018-01-08T10:42:11.878Z,102881.11
2018-01-08T10:44:45.006Z,102893.38
2018-01-08T10:47:18.162Z,102893.95
2018-01-08T10:49:51.218Z,102885.58
2018-01-08T10:52:18.121Z,102889.36
2018-01-08T10:54:47.351Z,102882.69
2018-01-08T10:57:14.780Z,102880.31
2018-01-08T10:59:42.240Z,102878.00
2018-01-08T11:02:15.408Z,102875.17
2018-01-08T11:04:42.813Z,102864.66
2018-01-08T11:07:10.224Z,102872.25
2018-01-08T11:09:37.664Z,102862.91
2018-01-08T11:12:05.081Z,102865.82
2018-01-08T11:14:32.514Z,102849.25
2018-01-08T11:16:59.959Z,102855.48
2018-01-08T11:19:27.370Z,102845.06
2018-01-08T11:21:54.776Z,102844.01
2018-01-08T11:24:22.235Z,102845.67
2018-01-08T11:26:49.655Z,102840.77
2018-01-08T11:29:17.166Z,102846.24
2018-01-08T11:31:44.585Z,102839.25
2018-01-08T11:34:11.989Z,102844.00
2018-01-08T11:36:39.415Z,102840.91
2018-01-08T11:39:06.877Z,102833.34
2018-01-08T11:41:34.282Z,102833.16
2018-01-08T11:44:01.724Z,102835.81
2018-01-08T11:46:29.249Z,102822.46
2018-01-08T11:48:56.655Z,102826.80
2018-01-08T11:51:24.099Z,102829.54
2018-01-08T11:53:51.503Z,102825.63
2018-01-08T11:56:18.915Z,102820.98
2018-01-08T11:58:46.363Z,102821.13
2018-01-08T12:01:13.768Z,102819.58
2018-01-08T12:03:41.158Z,102814.36
2018-01-08T12:06:08.786Z,102817.56
2018-01-08T12:08:36.264Z,102817.71
2018-01-08T12:11:03.671Z,102815.02
2018-01-08T12:13:31.110Z,102819.05
2018-01-08T12:15:58.588Z,102824.02
2018-01-08T12:18:26.000Z,102817.27
2018-01-08T12:20:53.421Z,102805.46
2018-01-08T12:23:20.839Z,102810.45
2018-01-08T12:25:48.271Z,102805.60
2018-01-08T12:28:15.692Z,102801.52
2018-01-08T12:30:43.155Z,102793.44
2018-01-08T12:33:10.639Z,102798.64
2018-01-08T12:35:38.016Z,102802.36
2018-01-08T12:38:05.531Z,102798.39
2018-01-08T12:40:32.966Z,102801.20
2018-01-08T12:43:00.374Z,102807.19
2018-01-08T12:45:27.780Z,102796.00
2018-01-08T12:47:55.213Z,102800.22
2018-01-08T12:50:22.700Z,102797.66
2018-01-08T12:52:50.116Z,102799.23
2018-01-08T12:55:17.551Z,102793.61
2018-01-08T12:57:44.971Z,102785.84
2018-01-08T13:00:12.390Z,102785.91
2018-01-08T13:02:39.792Z,102780.28
2018-01-08T13:05:07.236Z,102783.66
2018-01-08T13:07:34.655Z,102780.14
2018-01-08T13:10:02.162Z,102778.00
2018-01-08T13:12:29.603Z,102782.85
2018-01-08T13:14:57.015Z,102783.17
2018-01-08T13:17:24.425Z,102792.38
2018-01-08T13:19:51.879Z,102787.77
2018-01-08T13:22:19.320Z,102788.12
2018-01-08T13:24:46.767Z,102788.76
2018-01-08T13:27:14.187Z,102795.52
2018-01-08T13:29:41.590Z,102791.75
2018-01-08T13:32:09.029Z,102791.95
2018-01-08T13:34:36.434Z,102790.41
2018-01-08T13:37:03.884Z,102787.97
2018-01-08T13:39:31.314Z,102783.39
2018-01-08T13:41:58.714Z,102787.19
2018-01-08T13:44:26.128Z,102784.48
2018-01-08T13:46:53.560Z,102785.56
2018-01-08T13:49:21.062Z,102794.03
2018-01-08T13:51:48.468Z,102792.20
2018-01-08T13:54:15.919Z,102793.09
2018-01-08T13:56:43.323Z,102786.78
2018-01-08T13:59:10.800Z,102799.63
2018-01-08T14:01:38.338Z,102794.92
2018-01-08T14:04:05.746Z,102796.19
2018-01-08T14:06:33.254Z,102799.05
2018-01-08T14:09:00.703Z,102796.36
2018-01-08T14:11:28.127Z,102803.75
2018-01-08T14:13:55.648Z,102798.41
2018-01-08T14:16:23.072Z,102797.83
2018-01-08T14:18:50.487Z,102804.24
2018-01-08T14:21:17.899Z,102798.69
2018-01-08T14:23:45.343Z,102806.01
2018-01-08T14:26:12.746Z,102808.26
2018-01-08T14:28:40.161Z,102799.52
2018-01-08T14:31:07.731Z,102796.16
2018-01-08T14:33:35.148Z,102808.12
2018-01-08T14:36:02.543Z,102798.66
2018-01-08T14:38:30.091Z,102806.08
2018-01-08T14:40:57.502Z,102811.48
2018-01-08T14:43:24.904Z,102813.95
2018-01-08T14:45:52.336Z,102811.78
2018-01-08T14:48:19.752Z,102814.12
2018-01-08T14:50:47.182Z,102814.77
2018-01-08T14:53:14.629Z,102815.84
2018-01-08T14:55:42.051Z,102818.05
2018-01-08T14:58:09.455Z,102823.45
2018-01-08T15:00:36.903Z,102823.41
2018-01-08T15:03:04.322Z,102827.91
2018-01-08T15:05:31.824Z,102834.98
2018-01-08T15:07:59.258Z,102825.22
2018-01-08T15:10:26.659Z,102826.98
2018-01-08T15:12:54.083Z,102823.30
2018-01-08T15:15:21.523Z,102813.09
2018-01-08T15:17:48.938Z,102811.65
2018-01-08T15:20:16.363Z,102812.91
2018-01-08T15:22:43.838Z,102809.92
2018-01-08T15:25:11.228Z,102814.42
2018-01-08T15:27:38.674Z,102807.95
2018-01-08T15:30:06.092Z,102808.00
2018-01-08T15:32:33.534Z,102812.91
2018-01-08T15:35:00.964Z,102809.50
2018-01-08T15:37:28.388Z,102817.30
2018-01-08T15:39:55.834Z,102817.92
2018-01-08T15:42:23.248Z,102822.17
2018-01-08T15:44:50.672Z,102817.97
2018-01-08T15:47:18.122Z,102818.91
2018-01-08T15:49:45.635Z,102810.08
2018-01-08T15:52:13.039Z,102803.08
2018-01-08T15:54:40.464Z,102804.91
2018-01-08T15:57:07.889Z,102809.53
2018-01-08T15:59:35.370Z,102810.35
2018-01-08T16:02:02.783Z,102810.51
2018-01-08T16:04:30.195Z,102808.34
2018-01-08T16:06:57.653Z,102805.95
2018-01-08T16:09:25.085Z,102800.14
2018-01-08T16:11:52.491Z,102794.81
2018-01-08T16:14:19.951Z,102802.38
2018-01-08T16:16:47.366Z,102800.63
2018-01-08T16:19:14.796Z,102803.51
2018-01-08T16:21:42.236Z,102802.27
2018-01-08T16:24:09.650Z,102797.73
2018-01-08T16:26:37.068Z,102795.34
2018-01-08T16:29:04.499Z,102797.67
2018-01-08T16:31:31.909Z,102790.27
2018-01-08T16:33:59.355Z,102787.72
2018-01-08T16:36:26.811Z,102787.77
2018-01-08T16:38:54.242Z,102787.59
2018-01-08T16:41:21.712Z,102781.09
2018-01-08T16:43:49.119Z,102788.30
2018-01-08T16:46:16.622Z,102790.96
2018-01-08T16:48:44.064Z,102795.80
2018-01-08T16:51:11.560Z,102787.00
2018-01-08T16:53:39.016Z,102793.72
2018-01-08T16:56:06.468Z,102795.63
2018-01-08T16:58:33.891Z,102795.69
2018-01-08T17:01:01.305Z,102794.72
2018-01-08T17:03:28.739Z,102786.94
2018-01-08T17:05:56.191Z,102791.81
2018-01-08T17:08:23.624Z,102787.80
2018-01-08T17:10:51.089Z,102786.22
2018-01-08T17:13:18.507Z,102790.48
2018-01-08T17:15:45.931Z,102784.08
2018-01-08T17:18:13.370Z,102788.34
2018-01-08T17:20:40.814Z,102783.66
2018-01-08T17:23:08.247Z,102776.24
2018-01-08T17:25:35.703Z,102781.75
2018-01-08T17:28:03.122Z,102777.55
2018-01-08T17:30:30.540Z,102764.94
2018-01-08T17:32:58.005Z,102777.57
2018-01-08T17:35:25.427Z,102781.86
2018-01-08T17:37:52.843Z,102770.02
2018-01-08T17:40:20.295Z,102763.42
2018-01-08T17:42:47.716Z,102770.41
2018-01-08T17:45:15.134Z,102776.06
2018-01-08T17:47:42.586Z,102775.19
2018-01-08T17:50:10.100Z,102776.27
2018-01-08T17:52:37.539Z,102782.71
2018-01-08T17:55:04.974Z,102780.05
2018-01-08T17:57:32.401Z,102789.48
2018-01-08T17:59:59.806Z,102790.27
2018-01-08T18:02:27.320Z,102788.67
2018-01-08T18:04:54.734Z,102788.61
2018-01-08T18:07:22.211Z,102789.75
2018-01-08T18:09:49.631Z,102785.42
2018-01-08T18:12:17.080Z,102792.95
2018-01-08T18:14:44.531Z,102778.89
2018-01-08T18:17:11.976Z,102781.50
2018-01-08T18:19:39.411Z,102768.32
2018-01-08T18:22:06.834Z,102771.95
2018-01-08T18:24:34.254Z,102758.19
2018-01-08T18:27:01.704Z,102766.50
2018-01-08T18:29:29.223Z,102767.16
2018-01-08T18:31:56.682Z,102774.36
2018-01-08T18:34:24.132Z,102774.93
2018-01-08T18:36:51.547Z,102778.64
2018-01-08T18:39:18.992Z,102779.28
2018-01-08T18:41:46.487Z,102773.75
2018-01-08T18:44:13.913Z,102777.49
2018-01-08T18:46:41.423Z,102775.71
2018-01-08T18:49:08.844Z,102777.76
2018-01-08T18:51:36.262Z,102779.15
2018-01-08T18:54:03.707Z,102780.48
2018-01-08T18:56:31.127Z,102780.66
2018-01-08T18:58:58.574Z,102780.95
2018-01-08T19:01:26.013Z,102782.42
2018-01-08T19:03:53.436Z,102785.86
2018-01-08T19:06:20.881Z,102769.59
2018-01-08T19:08:48.344Z,102755.00
2018-01-08T19:11:15.841Z,102760.16
2018-01-08T19:13:43.307Z,102758.50
2018-01-08T19:16:10.793Z,102759.28
2018-01-08T19:18:38.294Z,102759.28
2018-01-08T19:21:05.756Z,102752.14
2018-01-08T19:23:33.225Z,102750.42
2018-01-08T19:26:00.732Z,102746.62
2018-01-08T19:28:28.219Z,102732.42
2018-01-08T19:30:55.782Z,102721.80
2018-01-08T19:33:23.263Z,102722.19
2018-01-08T19:35:50.778Z,102722.27
2018-01-08T19:40:52.106Z,102712.36
2018-01-08T19:43:19.586Z,102706.89
2018-01-08T19:45:47.071Z,102708.52
2018-01-08T19:48:14.527Z,102708.16
2018-01-08T19:50:41.983Z,102709.00
2018-01-08T19:53:09.460Z,102714.17
2018-01-08T19:55:37.053Z,102703.33
2018-01-08T19:58:04.560Z,102707.18
2018-01-08T20:00:32.065Z,102704.06
2018-01-08T20:02:59.528Z,102700.53
2018-01-08T20:05:26.996Z,102710.34
2018-01-08T20:07:54.480Z,102707.18
2018-01-08T20:10:21.947Z,102710.53
2018-01-08T20:12:49.456Z,102713.77
2018-01-08T20:15:17.002Z,102713.23
2018-01-08T20:17:44.466Z,102713.85
2018-01-08T20:20:11.954Z,102712.25
2018-01-08T20:22:39.417Z,102720.28
2018-01-08T20:25:06.901Z,102719.65
2018-01-08T20:27:35.126Z,102715.87
2018-01-08T20:30:02.604Z,102724.27
2018-01-08T20:32:30.062Z,102718.75
2018-01-08T20:34:57.550Z,102724.06
2018-01-08T20:37:25.005Z,102722.23
2018-01-08T20:39:52.467Z,102719.44
2018-01-08T20:42:20.123Z,102710.23
2018-01-08T20:44:47.588Z,102718.14
2018-01-08T20:47:15.057Z,102710.00
2018-01-08T20:49:42.546Z,102704.98
2018-01-08T20:52:10.018Z,102707.91
2018-01-08T20:54:37.471Z,102707.63
2018-01-08T20:57:04.945Z,102706.46
2018-01-08T20:59:32.392Z,102699.12
2018-01-08T21:01:59.829Z,102704.29
2018-01-08T21:04:27.296Z,102707.06
2018-01-08T21:06:54.754Z,102706.80
2018-01-08T21:09:22.234Z,102695.13
2018-01-08T21:11:49.658Z,102695.28
2018-01-08T21:14:17.076Z,102688.36
2018-01-08T21:16:44.587Z,102689.41
2018-01-08T21:19:12.013Z,102689.61
2018-01-08T21:21:39.434Z,102695.56
2018-01-08T21:24:06.875Z,102689.27
2018-01-08T21:26:34.300Z,102690.71
2018-01-08T21:29:01.764Z,102697.37
2018-01-08T21:31:29.204Z,102690.09
2018-01-08T21:33:56.675Z,102684.45
2018-01-08T21:36:24.095Z,102680.69
2018-01-08T21:38:51.538Z,102681.45
2018-01-08T21:41:19.047Z,102680.19
2018-01-08T21:43:46.459Z,102667.05
2018-01-08T21:46:13.936Z,102677.30
2018-01-08T21:48:41.347Z,102668.33
2018-01-08T21:51:08.765Z,102672.70
2018-01-08T21:53:36.215Z,102669.99
2018-01-08T21:56:03.629Z,102656.52
2018-01-08T21:58:31.051Z,102653.58
2018-01-08T22:00:58.499Z,102645.73
2018-01-08T22:03:25.965Z,102636.52
2018-01-08T22:05:53.401Z,102636.87
2018-01-08T22:08:20.835Z,102642.54
2018-01-08T22:10:48.268Z,102641.35
2018-01-08T22:13:15.699Z,102635.70
2018-01-08T22:15:43.147Z,102625.20
2018-01-08T22:18:10.682Z,102628.06
2018-01-08T22:20:38.157Z,102628.91
2018-01-08T22:23:05.599Z,102626.13
2018-01-08T22:25:33.073Z,102619.54
2018-01-08T22:28:00.492Z,102611.92
2018-01-08T22:30:27.950Z,102602.38
2018-01-08T22:32:55.371Z,102596.70
2018-01-08T22:35:22.780Z,102594.81
2018-01-08T22:37:50.221Z,102586.17
2018-01-08T22:40:17.650Z,102589.22
2018-01-08T22:42:45.070Z,102587.13
2018-01-08T22:45:12.549Z,102589.50
2018-01-08T22:47:39.948Z,102588.93
2018-01-08T22:50:07.364Z,102575.11
2018-01-08T22:52:34.815Z,102569.80
2018-01-08T22:55:02.236Z,102566.38
2018-01-08T22:57:29.661Z,102565.66
2018-01-08T22:59:57.104Z,102563.37
2018-01-08T23:02:24.526Z,102563.03
2018-01-08T23:04:51.949Z,102557.36
2018-01-08T23:07:19.380Z,102541.84
2018-01-08T23:09:46.799Z,102541.91
2018-01-08T23:12:14.216Z,102533.97
2018-01-08T23:14:41.654Z,102531.59
2018-01-08T23:17:09.159Z,102528.03
2018-01-08T23:19:36.581Z,102526.28
2018-01-08T23:22:04.024Z,102524.05
2018-01-08T23:24:31.443Z,102516.47
2018-01-08T23:26:58.865Z,102519.91
2018-01-08T23:29:26.300Z,102531.02
2018-01-08T23:31:53.710Z,102519.13
2018-01-08T23:34:21.146Z,102512.01
2018-01-08T23:36:48.568Z,102508.30
2018-01-08T23:39:16.056Z,102503.83
2018-01-08T23:41:43.500Z,102498.58
2018-01-08T23:44:10.976Z,102502.20
2018-01-08T23:46:38.396Z,102488.59
2018-01-08T23:49:05.827Z,102486.27
2018-01-08T23:51:33.252Z,102475.59
2018-01-08T23:54:00.667Z,102472.18
2018-01-08T23:56:28.095Z,102471.00
2018-01-08T23:58:55.524Z,102467.29
